Latest Weather Observations for Gabo Island

IDN60801

Issued at 7:35 pm EST Wednesday 23 April 2014 (issued every 30 minutes, with the page automatically refreshed every 10 minutes)

About weather observations | Map of weather stations | Latest weather observations for NSW | Other Formats
Station Details ID: 084016 Name: GABO ISLAND LIGHTHOUSE Lat: -37.57 Lon: 149.92 Height: 15.2 m
Data from the previous 72 hours. | See also: Recent months at Gabo Island
Date/Time
EST
Temp
°C
App
Temp
°C
Dew
Point
Rel
Hum
%
Delta-T
°C
Wind Press
QNH
hPa
Press
MSL
hPa
Rain
since 9 am
mm
Dir
 
Spd
km/h
Gust
km/h
Spd
kts
Gust
kts
23/07:30pm 18.8 18.4 16.3 85 1.5 SW 13 17 7 9 1012.8 - 0.0
23/07:00pm 18.8 18.1 16.3 85 1.5 SW 15 17 8 9 1012.9 - 0.0
23/06:30pm 18.7 18.4 16.5 87 1.3 SSW 13 17 7 9 1012.6 - 0.0
23/06:00pm 19.1 19.4 17.0 88 1.3 SSW 11 15 6 8 1012.5 1012.5 0.0
23/05:30pm 18.9 19.7 16.4 85 1.5 E 7 9 4 5 1012.5 - 0.0
23/05:00pm 19.1 19.2 16.4 84 1.6 ENE 11 15 6 8 1012.3 - 0.0
23/04:30pm 19.4 19.1 16.4 83 1.8 ENE 13 17 7 9 1012.1 - 0.0
23/04:00pm 19.6 18.4 16.1 80 2.1 ENE 17 19 9 10 1012.2 - 0.0
23/03:30pm 20.1 19.6 15.9 77 2.5 ENE 13 15 7 8 1012.4 - 0.0
23/03:00pm 20.1 19.5 15.7 76 2.6 E 13 17 7 9 1012.5 1012.6 0.0
23/02:30pm 20.0 19.1 15.8 77 2.5 ENE 15 17 8 9 1012.5 - 0.0
23/02:00pm 19.9 18.6 15.7 77 2.5 ENE 17 20 9 11 1012.5 - 0.0
23/01:30pm 19.6 18.1 15.4 77 2.5 E 17 20 9 11 1012.9 - 0.0
23/01:00pm 19.4 17.8 15.1 76 2.5 E 17 20 9 11 1013.4 - 0.0
23/12:30pm 19.3 18.1 15.0 76 2.5 E 15 17 8 9 1013.9 - 0.0
23/12:00pm 18.9 18.0 14.8 77 2.4 E 13 17 7 9 1014.5 1014.7 0.0
23/11:30am 19.0 18.4 14.5 75 2.6 E 11 15 6 8 1015.0 - 0.0
23/11:00am 19.0 19.0 14.3 74 2.7 ENE 7 9 4 5 1015.6 - 0.0
23/10:30am 19.3 19.8 15.0 76 2.5 E 6 7 3 4 1015.8 - 0.0
23/10:00am 17.4 18.1 14.6 83 1.6 SSW 4 7 2 4 1015.9 - 0.0
23/09:30am 17.7 18.9 14.8 83 1.7 NW 2 7 1 4 1016.4 - 0.0
23/09:00am 17.0 17.2 14.6 86 1.4 WNW 7 9 4 5 1016.7 1016.8 0.0
23/08:30am 16.8 16.9 14.0 83 1.6 NW 6 9 3 5 1017.0 - 0.0
23/08:00am 16.8 16.4 14.2 85 1.5 WNW 9 11 5 6 1017.1 - 0.0
23/07:30am 16.1 15.8 14.5 90 0.9 NW 9 11 5 6 1016.8 - 0.0
23/07:00am 15.6 15.0 13.6 88 1.1 WNW 9 13 5 7 1016.4 - 0.0
23/06:30am 15.4 14.5 13.6 89 1.0 NW 11 15 6 8 1016.4 - 0.0
23/06:00am 15.5 14.1 13.5 88 1.1 WNW 13 17 7 9 1016.2 1016.3 0.0
23/05:30am 15.8 14.2 14.0 89 1.0 W 15 19 8 10 1016.5 - 0.0
23/05:00am 15.8 14.1 13.7 87 1.2 W 15 17 8 9 1016.6 - 0.0
23/04:30am 15.8 14.2 13.8 88 1.1 W 15 20 8 11 1016.7 - 0.0
23/04:00am 15.9 13.8 13.6 86 1.3 W 17 20 9 11 1016.5 - 0.0
23/03:30am 15.9 13.7 13.4 85 1.4 W 17 20 9 11 1016.5 - 0.0
23/03:00am 15.7 14.1 12.8 83 1.6 W 13 15 7 8 1016.5 1016.4 0.0
23/02:30am 16.0 14.3 13.5 85 1.4 W 15 19 8 10 1016.7 - 0.0
23/02:00am 16.1 13.5 13.8 86 1.3 W 20 24 11 13 1017.2 - 0.0
23/01:30am 16.0 14.3 13.5 85 1.4 W 15 20 8 11 1017.1 - 0.0
23/01:00am 16.0 13.4 13.3 84 1.5 W 19 24 10 13 1017.3 - 0.0
23/12:30am 16.2 14.5 13.5 84 1.5 W 15 19 8 10 1017.1 - 0.0
23/12:00am 16.3 13.8 13.4 83 1.6 W 19 24 10 13 1017.1 1017.2 0.0
 
Date/Time
EST
Temp
°C
App
Temp
°C
Dew
Point
Rel
Hum
%
Delta-T
°C
Wind Press
QNH
hPa
Press
MSL
hPa
Rain
since 9 am
mm
Dir
 
Spd
km/h
Gust
km/h
Spd
kts
Gust
kts
22/11:30pm 16.2 14.5 13.5 84 1.5 WNW 15 17 8 9 1017.1 - 0.0
22/11:00pm 16.3 14.5 13.4 83 1.6 WNW 15 19 8 10 1017.2 - 0.0
22/10:30pm 16.9 14.6 14.6 86 1.3 WSW 20 24 11 13 1017.1 - 0.0
22/10:00pm 16.5 15.4 14.4 87 1.2 WNW 13 15 7 8 1017.0 - 0.0
22/09:30pm 18.1 16.4 14.8 81 1.9 SW 17 20 9 11 1016.8 - 0.0
22/09:00pm 17.5 17.4 13.4 77 2.3 SW 6 6 3 3 1016.4 1016.3 0.0
22/08:30pm 16.7 16.6 10.9 68 3.1 NNW 2 9 1 5 1016.2 - 0.0
22/08:00pm 17.1 17.6 11.6 70 3.0 CALM 0 6 0 3 1015.8 - 0.0
22/07:30pm 17.3 15.8 12.0 71 2.9 N 11 15 6 8 1015.6 - 0.0
22/07:00pm 17.7 15.8 11.9 69 3.2 N 13 15 7 8 1015.1 - 0.0
22/06:30pm 16.8 15.1 12.3 75 2.5 N 13 15 7 8 1014.9 - 0.0
22/06:00pm 16.8 16.0 12.8 77 2.2 N 9 11 5 6 1014.5 1014.4 0.0
22/05:30pm 17.6 17.3 12.6 72 2.8 N 6 7 3 4 1014.1 - 0.0
22/05:00pm 18.3 18.1 13.5 73 2.7 N 7 7 4 4 1014.0 - 0.0
22/04:30pm 19.0 19.1 13.9 72 2.9 N 6 7 3 4 1014.1 - 0.0
22/04:00pm 19.6 20.8 13.7 68 3.4 CALM 0 0 0 0 1014.1 - 0.0
22/03:30pm 20.0 20.0 13.5 66 3.7 SSW 6 7 3 4 1014.0 - 0.0
22/03:00pm 20.2 19.6 13.4 65 3.9 SW 9 11 5 6 1014.2 1014.2 0.0
22/02:30pm 20.3 18.0 13.1 63 4.1 SW 17 20 9 11 1014.4 - 0.0
22/02:00pm 20.5 19.7 13.9 66 3.8 SSW 11 15 6 8 1014.2 - 0.0
22/01:30pm 20.7 20.2 14.9 69 3.4 SSW 11 13 6 7 1014.4 - 0.0
22/01:00pm 19.9 18.7 14.0 69 3.4 SW 13 17 7 9 1014.7 - 0.0
22/12:30pm 20.3 18.8 14.1 67 3.6 WSW 15 17 8 9 1014.8 - 0.0
22/12:00pm 19.4 16.9 14.2 72 3.0 WSW 20 26 11 14 1015.0 1015.0 0.0
22/11:30am 19.3 16.3 13.7 70 3.2 WSW 22 28 12 15 1015.2 - 0.0
22/11:00am 20.1 16.0 8.6 47 6.0 W 20 35 11 19 1015.4 - 0.0
22/10:30am 19.1 14.3 14.1 73 2.9 SSW 32 33 17 18 1015.1 - 0.0
22/10:00am 19.6 19.3 13.3 67 3.6 S 7 13 4 7 1014.5 - 0.0
22/09:30am 19.5 19.6 11.5 60 4.4 N 2 7 1 4 1014.7 - 0.0
22/09:00am 18.9 17.8 10.8 59 4.4 N 7 11 4 6 1015.0 1014.8 0.0
22/08:30am 18.5 17.5 10.9 61 4.1 NNE 7 11 4 6 1014.9 - 0.0
22/08:00am 18.9 16.2 8.9 52 5.2 N 13 17 7 9 1014.6 - 0.0
22/07:30am 16.2 14.5 9.7 65 3.4 NNE 9 11 5 6 1014.5 - 0.0
22/07:00am 17.2 15.0 6.4 49 5.3 N 7 9 4 5 1014.3 - 0.0
22/06:30am 15.6 13.1 9.8 68 3.0 N 13 15 7 8 1014.1 - 0.0
22/06:00am 16.1 12.7 9.3 64 3.5 NNE 17 19 9 10 1014.0 1014.0 0.0
22/05:30am 15.2 13.1 9.8 70 2.8 NNE 11 13 6 7 1014.1 - 0.0
22/05:00am 16.0 13.6 9.9 67 3.2 NNE 13 17 7 9 1014.2 - 0.0
22/04:30am 15.2 13.4 10.9 75 2.3 N 11 13 6 7 1014.3 - 0.0
22/04:00am 16.5 13.3 10.0 65 3.4 N 17 19 9 10 1014.2 - 0.0
22/03:30am 16.3 13.4 10.9 70 2.9 N 17 20 9 11 1014.3 - 0.0
22/03:00am 15.5 13.6 10.4 71 2.7 N 11 13 6 7 1014.6 1014.7 0.0
22/02:30am 16.2 13.6 10.8 70 2.9 N 15 17 8 9 1015.0 - 0.0
22/02:00am 16.9 13.5 11.4 70 3.0 N 20 26 11 14 1015.0 - 0.0
22/01:30am 17.1 13.8 11.6 70 3.0 N 20 26 11 14 1015.2 - 0.0
22/01:00am 17.1 14.0 11.6 70 3.0 N 19 26 10 14 1015.5 - 0.0
22/12:30am 17.7 13.4 11.9 69 3.2 N 26 32 14 17 1015.6 - 0.0
22/12:00am 17.8 12.3 11.8 68 3.3 N 32 41 17 22 1015.7 1015.7 0.0
 
Date/Time
EST
Temp
°C
App
Temp
°C
Dew
Point
Rel
Hum
%
Delta-T
°C
Wind Press
QNH
hPa
Press
MSL
hPa
Rain
since 9 am
mm
Dir
 
Spd
km/h
Gust
km/h
Spd
kts
Gust
kts
21/11:30pm 18.1 11.7 11.9 67 3.4 NNE 37 44 20 24 1015.8 - 0.0
21/11:00pm 18.2 11.4 12.0 67 3.4 NNE 39 46 21 25 1016.0 - 0.0
21/10:30pm 18.3 11.4 11.7 65 3.6 N 39 48 21 26 1016.3 - 0.0
21/10:00pm 18.3 11.8 11.7 65 3.6 N 37 52 20 28 1016.7 - 0.0
21/09:30pm 18.2 12.1 11.6 65 3.6 N 35 46 19 25 1017.1 - 0.0
21/09:00pm 18.0 12.2 11.6 66 3.5 N 33 46 18 25 1017.2 1017.3 0.0
21/08:30pm 18.0 12.8 11.6 66 3.5 NNE 30 37 16 20 1017.5 - 0.0
21/08:00pm 17.3 13.5 11.2 67 3.3 N 22 32 12 17 1017.9 - 0.0
21/07:30pm 16.7 14.2 11.1 69 3.0 N 15 19 8 10 1018.0 - 0.0
21/07:00pm 17.2 13.4 11.3 68 3.2 NNE 22 28 12 15 1017.9 - 0.0
21/06:30pm 17.1 13.1 10.5 65 3.5 NNE 22 26 12 14 1017.7 - 0.0
21/06:00pm 17.0 13.2 9.7 62 3.8 NNE 20 24 11 13 1017.7 1017.7 0.0
21/05:30pm 17.5 13.3 9.9 61 4.0 NNE 22 28 12 15 1017.4 - 0.0
21/05:00pm 18.2 13.2 9.7 57 4.5 NNE 26 32 14 17 1017.3 - 0.0
21/04:30pm 18.4 13.1 9.9 57 4.5 NNE 28 35 15 19 1017.4 - 0.0
21/04:00pm 18.6 13.1 9.0 53 5.0 NE 28 33 15 18 1017.5 - 0.0
21/03:30pm 18.8 13.1 8.3 50 5.4 NE 28 32 15 17 1017.7 - 0.0
21/03:00pm 18.9 14.4 8.7 51 5.3 NE 22 26 12 14 1018.2 1018.2 0.0
21/02:30pm 18.9 14.8 8.7 51 5.3 NE 20 24 11 13 1018.3 - 0.0
21/02:00pm 18.9 15.6 8.2 50 5.5 NE 15 20 8 11 1018.5 - 0.0
21/01:30pm 18.9 15.9 7.7 48 5.7 ENE 13 17 7 9 1018.6 - 0.0
21/01:00pm 18.6 16.4 6.3 44 6.1 E 7 11 4 6 1018.8 - 0.0
21/12:30pm 19.0 17.1 6.6 44 6.2 S 6 7 3 4 1019.4 - 0.0
21/12:00pm 18.8 16.8 7.1 46 5.9 SSW 7 9 4 5 1019.6 1019.7 0.0
21/11:30am 18.9 16.5 7.2 46 5.9 SW 9 11 5 6 1019.9 - 0.0
21/11:00am 18.7 16.2 8.2 50 5.4 W 11 13 6 7 1020.3 - 0.0
21/10:30am 18.5 15.4 7.1 47 5.7 W 13 17 7 9 1020.5 - 0.0
21/10:00am 18.8 15.4 6.0 43 6.3 NW 13 17 7 9 1020.7 - 0.0
21/09:30am 18.1 14.5 5.2 42 6.2 WNW 13 17 7 9 1020.9 - 0.0
21/09:00am 17.2 13.2 5.0 44 5.8 NW 15 20 8 11 1021.0 1020.9 0.0
21/08:30am 16.4 12.4 4.7 46 5.5 NW 15 20 8 11 1020.8 - 0.0
21/08:00am 15.7 12.1 5.1 49 5.0 NW 13 19 7 10 1020.6 - 0.0
21/07:30am 14.3 9.3 4.8 53 4.4 NW 20 26 11 14 1020.3 - 0.0
21/07:00am 13.3 9.2 6.4 63 3.3 WNW 17 22 9 12 1020.1 - 0.0
21/06:30am 13.2 9.0 5.7 60 3.5 WNW 17 20 9 11 1019.6 - 0.0
21/06:00am 13.0 9.2 6.0 62 3.3 WNW 15 20 8 11 1019.4 1019.4 0.0
21/05:30am 13.3 9.3 5.1 57 3.8 WNW 15 19 8 10 1019.2 - 0.0
21/05:00am 13.7 9.7 4.8 55 4.1 WNW 15 20 8 11 1019.0 - 0.0
21/04:30am 13.7 9.3 4.8 55 4.1 WNW 17 22 9 12 1018.8 - 0.0
21/04:00am 13.7 8.8 4.3 53 4.3 NW 19 24 10 13 1018.6 - 0.0
21/03:30am 13.6 9.1 4.4 53 4.2 NW 17 24 9 13 1018.6 - 0.0
21/03:00am 13.6 9.2 4.7 55 4.1 WNW 17 22 9 12 1018.6 1018.6 0.0
21/02:30am 13.7 9.3 4.8 55 4.1 NW 17 20 9 11 1018.5 - 0.0
21/02:00am 13.7 9.4 5.4 57 3.9 NW 17 22 9 12 1018.5 - 0.0
21/01:30am 13.7 9.7 5.1 56 4.0 NW 15 20 8 11 1018.6 - 0.0
21/01:00am 13.6 9.7 5.5 58 3.8 NW 15 20 8 11 1018.7 - 0.0
21/12:30am 14.0 9.9 4.4 52 4.4 WNW 15 20 8 11 1018.7 - 0.0
21/12:00am 13.2 9.4 5.8 61 3.5 WNW 15 20 8 11 1018.6 1018.7 0.0
 
Date/Time
EST
Temp
°C
App
Temp
°C
Dew
Point
Rel
Hum
%
Delta-T
°C
Wind Press
QNH
hPa
Press
MSL
hPa
Rain
since 9 am
mm
Dir
 
Spd
km/h
Gust
km/h
Spd
kts
Gust
kts
20/11:30pm 13.4 9.6 5.7 59 3.6 NW 15 19 8 10 1018.8 - 0.0
20/11:00pm 13.5 9.9 6.6 63 3.3 NW 15 19 8 10 1018.9 - 0.0
20/10:30pm 13.9 10.2 6.4 60 3.6 WNW 15 22 8 12 1018.9 - 0.0
20/10:00pm 14.2 9.4 5.8 57 4.0 WNW 20 32 11 17 1018.8 - 0.0
20/09:30pm 14.3 10.1 5.9 57 4.0 WNW 17 24 9 13 1018.7 - 0.0
20/09:00pm 14.7 13.4 14.7 100 0.0 WNW 15 24 8 13 1018.5 1018.5 0.0
20/08:30pm 15.3 12.5 15.3 100 0.0 W 24 32 13 17 1018.2 - 0.0
20/08:00pm 15.6 11.7 15.6 100 0.0 W 30 35 16 19 1018.0 - 0.0

Other Formats:

Comma delimited format used in spreadsheet applications
http://www.bom.gov.au/fwo/IDN60801/IDN60801.94933.axf

JavaScript Object Notation format (JSON) in row-major order
http://www.bom.gov.au/fwo/IDN60801/IDN60801.94933.json